Time;durP1;ratioP1;P1;durP2;ratioP2;P2;SDS_P1;SDS_P2;PMS_P1;PMS_P2;Temp;Humidity;BMP_temperature;BMP_pressure;BME280_temperature;BME280_humidity;BME280_pressure;Samples;Min_cycle;Max_cycle;Signal;HPM_P1;HPM_P2
2022/09/28 00:01:51;;;;;;;;;;;20.70;70.30;;;;;;5021317;28;1429;-69
2022/09/28 00:04:16;;;;;;;;;;;20.70;70.40;;;;;;5024039;28;1891;-69
2022/09/28 00:06:42;;;;;;;;;;;20.70;70.30;;;;;;5020142;28;1247;-68
2022/09/28 00:09:07;;;;;;;;;;;20.70;70.40;;;;;;5022616;28;813;-68
2022/09/28 00:11:33;;;;;;;;;;;20.70;70.40;;;;;;5023774;28;899;-71
2022/09/28 00:14:02;;;;;;;;;;;20.70;70.40;;;;;;5022735;28;1744;-68
2022/09/28 00:16:34;;;;;;;;;;;20.70;70.40;;;;;;5020259;28;1263;-69
2022/09/28 00:18:59;;;;;;;;;;;20.70;70.40;;;;;;5020865;28;1308;-69
2022/09/28 00:21:26;;;;;;;;;;;20.70;70.40;;;;;;5021410;28;820;-69
2022/09/28 00:26:40;;;;;;;;;;;20.70;70.40;;;;;;5023690;28;1293;-69
2022/09/28 00:29:06;;;;;;;;;;;20.70;70.40;;;;;;5025569;28;1086;-71
2022/09/28 00:31:31;;;;;;;;;;;20.70;70.40;;;;;;5024046;28;1461;-67
2022/09/28 00:33:57;;;;;;;;;;;20.70;70.50;;;;;;5017274;28;1162;-67
2022/09/28 00:36:23;;;;;;;;;;;20.70;70.50;;;;;;5021438;28;1433;-69
2022/09/28 00:38:48;;;;;;;;;;;20.70;70.40;;;;;;5020693;28;875;-68
2022/09/28 00:41:14;;;;;;;;;;;20.70;70.50;;;;;;5019542;28;840;-67
2022/09/28 00:43:39;;;;;;;;;;;20.70;70.50;;;;;;5020150;28;1968;-67
2022/09/28 00:46:07;;;;;;;;;;;20.70;70.50;;;;;;5018171;28;1344;-68
2022/09/28 00:48:33;;;;;;;;;;;20.70;70.40;;;;;;5023230;28;1937;-68
2022/09/28 00:50:58;;;;;;;;;;;20.70;70.50;;;;;;5023494;28;1335;-69
2022/09/28 00:53:24;;;;;;;;;;;20.70;70.50;;;;;;5023670;28;1838;-69
2022/09/28 00:55:57;;;;;;;;;;;20.70;70.50;;;;;;5025881;28;1462;-69
2022/09/28 00:58:27;;;;;;;;;;;20.70;70.50;;;;;;5024073;28;1551;-69
2022/09/28 01:00:54;;;;;;;;;;;20.70;70.50;;;;;;5021545;28;1457;-68
2022/09/28 01:03:19;;;;;;;;;;;20.70;70.50;;;;;;5023920;28;1979;-67
2022/09/28 01:05:45;;;;;;;;;;;20.70;70.60;;;;;;5028216;28;1344;-68
2022/09/28 01:08:11;;;;;;;;;;;20.70;70.50;;;;;;5022263;28;1182;-68
2022/09/28 01:10:36;;;;;;;;;;;20.70;70.60;;;;;;5023644;28;1325;-67
2022/09/28 01:13:01;;;;;;;;;;;20.70;70.50;;;;;;5021909;28;1794;-70
2022/09/28 01:15:27;;;;;;;;;;;20.70;70.60;;;;;;5019761;28;1294;-69
2022/09/28 01:18:05;;;;;;;;;;;20.60;70.50;;;;;;5018893;28;1081;-68
2022/09/28 01:20:39;;;;;;;;;;;20.70;70.60;;;;;;5019598;28;974;-69
2022/09/28 01:23:14;;;;;;;;;;;20.70;70.60;;;;;;5018464;28;832;-70
2022/09/28 01:25:58;;;;;;;;;;;20.60;70.50;;;;;;5021350;28;1374;-69
2022/09/28 01:28:24;;;;;;;;;;;20.60;70.50;;;;;;5021716;28;1486;-69
2022/09/28 01:30:53;;;;;;;;;;;20.60;70.50;;;;;;5021775;28;1617;-69
2022/09/28 01:33:19;;;;;;;;;;;20.60;70.70;;;;;;5022091;28;1290;-69
2022/09/28 01:35:52;;;;;;;;;;;20.60;70.50;;;;;;5019313;28;1245;-69
2022/09/28 01:38:19;;;;;;;;;;;20.60;70.70;;;;;;5023660;28;872;-69
2022/09/28 01:40:45;;;;;;;;;;;20.60;70.50;;;;;;5019368;28;796;-69
2022/09/28 01:43:12;;;;;;;;;;;20.60;70.70;;;;;;5021131;28;1902;-69
2022/09/28 01:45:42;;;;;;;;;;;20.60;70.50;;;;;;5020329;28;1262;-70
2022/09/28 01:48:08;;;;;;;;;;;20.60;70.60;;;;;;5016150;28;1550;-69
2022/09/28 01:50:35;;;;;;;;;;;20.60;70.70;;;;;;5020085;28;812;-70
2022/09/28 01:53:06;;;;;;;;;;;20.60;70.60;;;;;;5022975;28;859;-69
2022/09/28 01:55:38;;;;;;;;;;;20.60;70.70;;;;;;5021735;28;1257;-70
2022/09/28 01:58:11;;;;;;;;;;;20.60;70.70;;;;;;5017178;28;981;-70
2022/09/28 02:00:37;;;;;;;;;;;20.60;70.70;;;;;;5023134;28;1116;-69
2022/09/28 02:03:16;;;;;;;;;;;20.60;70.60;;;;;;5017543;28;926;-70
2022/09/28 02:05:42;;;;;;;;;;;20.60;70.70;;;;;;5023057;28;1230;-72
2022/09/28 02:08:09;;;;;;;;;;;20.60;70.70;;;;;;5022739;28;1175;-69
2022/09/28 02:10:40;;;;;;;;;;;20.60;70.70;;;;;;5019264;28;872;-69
2022/09/28 02:13:14;;;;;;;;;;;20.60;70.80;;;;;;5022382;28;812;-69
2022/09/28 02:15:42;;;;;;;;;;;20.60;70.70;;;;;;5019617;28;1268;-69
2022/09/28 02:18:08;;;;;;;;;;;20.60;70.80;;;;;;5021022;28;1066;-69
2022/09/28 02:20:33;;;;;;;;;;;20.60;70.70;;;;;;5022698;28;946;-69
2022/09/28 02:22:59;;;;;;;;;;;20.60;70.70;;;;;;5022931;28;1318;-70
2022/09/28 02:25:29;;;;;;;;;;;20.60;70.70;;;;;;5018586;28;1948;-71
2022/09/28 02:27:57;;;;;;;;;;;20.60;70.70;;;;;;5020833;28;1576;-71
2022/09/28 02:30:22;;;;;;;;;;;20.60;70.70;;;;;;5020137;28;871;-70
2022/09/28 02:32:48;;;;;;;;;;;20.60;70.60;;;;;;5020200;28;1395;-69
2022/09/28 02:35:15;;;;;;;;;;;20.60;70.50;;;;;;5018618;28;1401;-70
2022/09/28 02:37:40;;;;;;;;;;;20.60;70.50;;;;;;5020533;28;866;-69
2022/09/28 02:40:36;;;;;;;;;;;20.60;70.50;;;;;;5021217;28;829;-69
2022/09/28 02:43:08;;;;;;;;;;;20.60;70.50;;;;;;5014014;28;1326;-70
2022/09/28 02:45:51;;;;;;;;;;;20.60;70.50;;;;;;5022958;28;1938;-69
2022/09/28 02:48:26;;;;;;;;;;;20.60;70.50;;;;;;5019058;28;891;-69
2022/09/28 02:50:58;;;;;;;;;;;20.60;70.50;;;;;;5019589;28;1046;-69
2022/09/28 02:53:50;;;;;;;;;;;20.60;70.60;;;;;;5019174;28;1243;-68
2022/09/28 02:56:25;;;;;;;;;;;20.60;70.50;;;;;;5016389;28;1778;-69
2022/09/28 02:58:51;;;;;;;;;;;20.60;70.50;;;;;;5020090;28;836;-69
2022/09/28 03:01:32;;;;;;;;;;;20.60;70.50;;;;;;5019541;28;991;-68
2022/09/28 03:04:17;;;;;;;;;;;20.60;70.50;;;;;;5020063;28;1981;-71
2022/09/28 03:06:46;;;;;;;;;;;20.60;70.50;;;;;;5019658;28;1387;-69
2022/09/28 03:09:38;;;;;;;;;;;20.60;70.50;;;;;;5016690;28;974;-69
2022/09/28 03:12:07;;;;;;;;;;;20.60;70.50;;;;;;5019493;28;1193;-68
2022/09/28 03:14:32;;;;;;;;;;;20.60;70.50;;;;;;5017607;28;833;-69
2022/09/28 03:16:58;;;;;;;;;;;20.60;70.50;;;;;;5020496;28;1312;-68
2022/09/28 03:19:25;;;;;;;;;;;20.60;70.50;;;;;;5019222;28;989;-69
2022/09/28 03:21:50;;;;;;;;;;;20.60;70.50;;;;;;5021614;28;967;-68
2022/09/28 03:24:16;;;;;;;;;;;20.60;70.50;;;;;;5018135;28;1972;-68
2022/09/28 03:26:41;;;;;;;;;;;20.60;70.50;;;;;;5021660;28;1361;-68
2022/09/28 03:29:06;;;;;;;;;;;20.60;70.50;;;;;;5018841;28;1368;-68
2022/09/28 03:31:32;;;;;;;;;;;20.60;70.50;;;;;;5017407;28;1244;-69
2022/09/28 03:33:57;;;;;;;;;;;20.60;70.50;;;;;;5021829;28;903;-69
2022/09/28 03:36:23;;;;;;;;;;;20.60;70.50;;;;;;5018129;28;1190;-68
2022/09/28 03:38:50;;;;;;;;;;;20.60;70.50;;;;;;5020297;28;772;-68
2022/09/28 03:41:15;;;;;;;;;;;20.60;70.60;;;;;;5020740;28;1030;-69
2022/09/28 03:43:41;;;;;;;;;;;20.60;70.50;;;;;;5016947;28;1971;-68
2022/09/28 03:46:06;;;;;;;;;;;20.60;70.50;;;;;;5016436;28;1212;-69
2022/09/28 03:48:33;;;;;;;;;;;20.60;70.50;;;;;;5020267;28;929;-69
2022/09/28 03:50:59;;;;;;;;;;;20.60;70.50;;;;;;5022265;28;800;-69
2022/09/28 03:53:24;;;;;;;;;;;20.60;70.50;;;;;;5017029;28;864;-69
2022/09/28 03:55:52;;;;;;;;;;;20.60;70.40;;;;;;5017029;28;1296;-70
2022/09/28 03:58:20;;;;;;;;;;;20.60;70.50;;;;;;5018319;28;843;-69
2022/09/28 04:00:46;;;;;;;;;;;20.60;70.50;;;;;;5019078;28;868;-69
2022/09/28 04:03:11;;;;;;;;;;;20.60;70.50;;;;;;5017419;28;1010;-69
2022/09/28 04:05:37;;;;;;;;;;;20.60;70.50;;;;;;5016853;28;1963;-69
2022/09/28 04:08:02;;;;;;;;;;;20.60;70.50;;;;;;5019376;28;792;-71
2022/09/28 04:10:27;;;;;;;;;;;20.60;70.50;;;;;;5019188;28;876;-70
2022/09/28 04:12:56;;;;;;;;;;;20.60;70.50;;;;;;5020605;28;924;-69
2022/09/28 04:15:22;;;;;;;;;;;20.60;70.50;;;;;;5022846;28;1228;-70
2022/09/28 04:17:47;;;;;;;;;;;20.60;70.50;;;;;;5018996;28;1086;-69
2022/09/28 04:20:13;;;;;;;;;;;20.60;70.40;;;;;;5019105;28;795;-69
2022/09/28 04:22:38;;;;;;;;;;;20.60;70.50;;;;;;5018425;28;797;-68
2022/09/28 04:25:04;;;;;;;;;;;20.60;70.50;;;;;;5015782;28;1911;-67
2022/09/28 04:30:14;;;;;;;;;;;20.60;70.50;;;;;;5017442;28;834;-70
2022/09/28 04:32:40;;;;;;;;;;;20.60;70.50;;;;;;5023036;28;1422;-68
2022/09/28 04:35:06;;;;;;;;;;;20.60;70.50;;;;;;5019119;28;1266;-69
2022/09/28 04:37:32;;;;;;;;;;;20.60;70.50;;;;;;5017174;28;946;-71
2022/09/28 04:39:58;;;;;;;;;;;20.60;70.50;;;;;;5018460;28;900;-69
2022/09/28 04:42:23;;;;;;;;;;;20.60;70.60;;;;;;5018922;28;931;-69
2022/09/28 04:44:48;;;;;;;;;;;20.60;70.50;;;;;;5018013;28;1941;-70
2022/09/28 04:47:14;;;;;;;;;;;20.60;70.50;;;;;;5023960;28;1251;-69
2022/09/28 04:49:40;;;;;;;;;;;20.60;70.50;;;;;;5022406;28;855;-69
2022/09/28 04:52:05;;;;;;;;;;;20.60;70.50;;;;;;5025121;28;840;-71
2022/09/28 04:54:30;;;;;;;;;;;20.60;70.50;;;;;;5021650;28;1034;-72
2022/09/28 04:56:56;;;;;;;;;;;20.60;70.50;;;;;;5019226;28;1244;-71
2022/09/28 04:59:22;;;;;;;;;;;20.60;70.40;;;;;;5023336;28;1316;-67
2022/09/28 05:01:48;;;;;;;;;;;20.60;70.70;;;;;;5021100;28;852;-67
2022/09/28 05:04:13;;;;;;;;;;;20.60;70.90;;;;;;5019399;28;1906;-68
2022/09/28 05:06:39;;;;;;;;;;;20.70;70.90;;;;;;5002558;28;4715;-71
2022/09/28 05:09:04;;;;;;;;;;;20.70;70.90;;;;;;5011892;28;4023;-67
2022/09/28 05:11:30;;;;;;;;;;;20.70;70.80;;;;;;5010423;28;4140;-69
2022/09/28 05:13:55;;;;;;;;;;;20.80;70.90;;;;;;5017710;28;974;-69
2022/09/28 05:16:21;;;;;;;;;;;20.90;70.80;;;;;;5018577;28;1378;-69
2022/09/28 05:18:46;;;;;;;;;;;20.90;70.60;;;;;;5020331;28;839;-69
2022/09/28 05:21:12;;;;;;;;;;;21.00;70.60;;;;;;5020568;28;1520;-69
2022/09/28 05:23:38;;;;;;;;;;;21.10;70.40;;;;;;5020027;28;1985;-69
2022/09/28 05:26:03;;;;;;;;;;;21.10;70.20;;;;;;5018595;28;1354;-68
2022/09/28 05:28:29;;;;;;;;;;;21.20;70.00;;;;;;5021360;28;1348;-68
2022/09/28 05:31:01;;;;;;;;;;;21.20;69.80;;;;;;5015892;28;1089;-70
2022/09/28 05:33:27;;;;;;;;;;;21.30;69.60;;;;;;5018794;28;1134;-68
2022/09/28 05:35:52;;;;;;;;;;;21.30;69.50;;;;;;5005136;28;4688;-69
2022/09/28 05:38:18;;;;;;;;;;;21.30;69.40;;;;;;5012269;28;4697;-69
2022/09/28 05:40:43;;;;;;;;;;;21.40;69.30;;;;;;5011838;28;4775;-69
2022/09/28 05:43:08;;;;;;;;;;;21.50;69.10;;;;;;5015538;28;929;-71
2022/09/28 05:45:34;;;;;;;;;;;21.50;69.00;;;;;;5017272;28;1906;-71
2022/09/28 05:47:59;;;;;;;;;;;21.50;68.90;;;;;;5018557;28;883;-67
2022/09/28 05:50:25;;;;;;;;;;;21.60;68.80;;;;;;5021204;28;839;-68
2022/09/28 05:53:00;;;;;;;;;;;21.60;68.70;;;;;;5018290;28;816;-70
2022/09/28 05:55:26;;;;;;;;;;;21.60;68.50;;;;;;5021444;28;1334;-68
2022/09/28 05:57:51;;;;;;;;;;;21.70;68.50;;;;;;5018591;28;888;-68
2022/09/28 06:00:17;;;;;;;;;;;21.70;68.40;;;;;;5019799;28;886;-72
2022/09/28 06:02:43;;;;;;;;;;;21.70;68.30;;;;;;5023535;28;887;-71
2022/09/28 06:05:08;;;;;;;;;;;21.70;68.10;;;;;;5019385;28;1965;-69
2022/09/28 06:07:34;;;;;;;;;;;21.80;68.00;;;;;;5024080;28;959;-69
2022/09/28 06:09:59;;;;;;;;;;;21.80;67.80;;;;;;5022196;28;1240;-70
2022/09/28 06:12:25;;;;;;;;;;;21.80;67.60;;;;;;5019957;28;808;-70
2022/09/28 06:14:50;;;;;;;;;;;21.90;67.60;;;;;;5021543;28;867;-69
2022/09/28 06:17:15;;;;;;;;;;;21.90;67.40;;;;;;5020392;28;1743;-69
2022/09/28 06:19:41;;;;;;;;;;;22.00;67.40;;;;;;5024478;28;832;-68
2022/09/28 06:22:07;;;;;;;;;;;22.00;67.30;;;;;;5019703;28;856;-69
2022/09/28 06:24:33;;;;;;;;;;;22.00;67.20;;;;;;5017675;28;1910;-68
2022/09/28 06:26:58;;;;;;;;;;;22.10;67.10;;;;;;5019510;28;1288;-69
2022/09/28 06:29:23;;;;;;;;;;;22.00;67.00;;;;;;5021209;28;897;-68
2022/09/28 06:31:50;;;;;;;;;;;22.10;67.00;;;;;;5018893;28;1033;-69
2022/09/28 06:34:16;;;;;;;;;;;22.10;67.00;;;;;;5020170;28;840;-68
2022/09/28 06:36:41;;;;;;;;;;;22.10;66.90;;;;;;5019589;28;1277;-68
2022/09/28 06:39:06;;;;;;;;;;;22.10;66.90;;;;;;5019117;28;882;-68
2022/09/28 06:41:32;;;;;;;;;;;22.10;66.90;;;;;;5023669;28;914;-68
2022/09/28 06:43:57;;;;;;;;;;;22.10;66.80;;;;;;5020397;28;1910;-68
2022/09/28 06:46:23;;;;;;;;;;;22.10;66.80;;;;;;5019749;28;1299;-68
2022/09/28 06:48:48;;;;;;;;;;;22.10;66.80;;;;;;5020320;28;1017;-68
2022/09/28 06:51:14;;;;;;;;;;;22.10;66.80;;;;;;5016071;28;1160;-70
2022/09/28 06:53:40;;;;;;;;;;;22.10;66.80;;;;;;5019474;28;881;-68
2022/09/28 06:56:07;;;;;;;;;;;22.10;66.80;;;;;;5022610;28;1275;-68
2022/09/28 06:58:32;;;;;;;;;;;22.10;66.90;;;;;;5017712;28;821;-70
2022/09/28 07:00:58;;;;;;;;;;;22.10;66.90;;;;;;5019970;28;1607;-70
2022/09/28 07:03:24;;;;;;;;;;;22.10;66.90;;;;;;5021381;28;1914;-69
2022/09/28 07:05:50;;;;;;;;;;;22.10;66.90;;;;;;5024198;28;1271;-69
2022/09/28 07:08:15;;;;;;;;;;;22.10;67.00;;;;;;5020620;28;953;-71
2022/09/28 07:10:41;;;;;;;;;;;22.10;67.00;;;;;;5018312;28;1073;-69
2022/09/28 07:13:07;;;;;;;;;;;22.00;67.00;;;;;;5019009;28;1085;-70
2022/09/28 07:15:32;;;;;;;;;;;22.00;67.10;;;;;;5019985;28;1292;-68
2022/09/28 07:17:58;;;;;;;;;;;22.00;67.10;;;;;;5021093;28;789;-69
2022/09/28 07:20:24;;;;;;;;;;;22.00;67.10;;;;;;5016518;28;1743;-71
2022/09/28 07:22:56;;;;;;;;;;;22.00;67.20;;;;;;5021401;28;1555;-68
2022/09/28 07:25:21;;;;;;;;;;;22.00;67.20;;;;;;5019571;28;1895;-71
2022/09/28 07:27:47;;;;;;;;;;;22.00;67.30;;;;;;5010714;28;5077;-69
2022/09/28 07:30:12;;;;;;;;;;;22.00;67.30;;;;;;5027934;28;1324;-69
2022/09/28 07:32:39;;;;;;;;;;;22.00;67.40;;;;;;5024933;28;1224;-69
2022/09/28 07:35:06;;;;;;;;;;;21.90;67.30;;;;;;5026881;28;1300;-70
2022/09/28 07:37:32;;;;;;;;;;;21.90;67.40;;;;;;5028313;28;1038;-71
2022/09/28 07:42:42;;;;;;;;;;;21.90;67.50;;;;;;5023200;28;1010;-69
2022/09/28 07:45:07;;;;;;;;;;;21.80;67.50;;;;;;5020875;28;2246;-69
2022/09/28 07:47:33;;;;;;;;;;;21.80;67.50;;;;;;5020132;28;897;-70
2022/09/28 07:49:58;;;;;;;;;;;21.80;67.60;;;;;;5015091;28;785;-68
2022/09/28 07:52:25;;;;;;;;;;;21.80;67.60;;;;;;5021140;28;873;-68
2022/09/28 07:54:51;;;;;;;;;;;21.90;67.70;;;;;;5019058;28;880;-68
2022/09/28 07:57:18;;;;;;;;;;;21.90;67.70;;;;;;5019977;28;2258;-68
2022/09/28 07:59:43;;;;;;;;;;;21.80;67.70;;;;;;5020140;28;1383;-70
2022/09/28 08:02:09;;;;;;;;;;;21.80;67.80;;;;;;5022752;28;1746;-68
2022/09/28 08:04:35;;;;;;;;;;;21.80;67.80;;;;;;5019304;28;1910;-69
2022/09/28 08:07:01;;;;;;;;;;;21.80;67.80;;;;;;5015801;28;1246;-69
2022/09/28 08:09:27;;;;;;;;;;;21.70;67.90;;;;;;5020862;28;840;-68
2022/09/28 08:11:53;;;;;;;;;;;21.80;68.00;;;;;;5017778;28;1206;-69
2022/09/28 08:14:19;;;;;;;;;;;21.80;68.00;;;;;;5017044;28;847;-67
2022/09/28 08:16:44;;;;;;;;;;;21.70;68.00;;;;;;5018790;28;1338;-69
2022/09/28 08:19:10;;;;;;;;;;;21.70;68.10;;;;;;5015665;28;875;-69
2022/09/28 08:21:44;;;;;;;;;;;21.70;68.10;;;;;;5019494;28;829;-70
2022/09/28 08:24:11;;;;;;;;;;;21.70;68.20;;;;;;5021733;28;1898;-69
2022/09/28 08:26:36;;;;;;;;;;;21.70;68.20;;;;;;5020381;28;1271;-69
2022/09/28 08:29:02;;;;;;;;;;;21.70;68.30;;;;;;5018874;28;1933;-70
2022/09/28 08:31:27;;;;;;;;;;;21.60;68.20;;;;;;5024258;28;1341;-70
2022/09/28 08:33:53;;;;;;;;;;;21.60;68.30;;;;;;5019485;28;1022;-69
2022/09/28 08:36:19;;;;;;;;;;;21.60;68.30;;;;;;5020933;28;1310;-70
2022/09/28 08:38:45;;;;;;;;;;;21.60;68.40;;;;;;5009163;28;2176;-69
2022/09/28 08:41:29;;;;;;;;;;;21.60;68.40;;;;;;5023979;28;1285;-71
2022/09/28 08:44:10;;;;;;;;;;;21.60;68.40;;;;;;5020727;28;1953;-70
2022/09/28 08:46:36;;;;;;;;;;;21.60;69.30;;;;;;5019275;28;2515;-69
2022/09/28 08:49:08;;;;;;;;;;;21.60;68.60;;;;;;5024200;28;1015;-70
2022/09/28 08:51:36;;;;;;;;;;;21.50;68.50;;;;;;5020045;28;1565;-70
2022/09/28 08:54:04;;;;;;;;;;;21.50;68.50;;;;;;5020506;28;937;-70
2022/09/28 08:56:40;;;;;;;;;;;21.50;68.60;;;;;;5019287;28;1469;-70
2022/09/28 08:59:09;;;;;;;;;;;21.50;68.60;;;;;;5022294;28;1397;-70
2022/09/28 09:01:37;;;;;;;;;;;21.50;68.70;;;;;;5021080;28;1520;-70
2022/09/28 09:04:02;;;;;;;;;;;21.50;68.70;;;;;;5018582;28;1910;-70
2022/09/28 09:06:48;;;;;;;;;;;21.50;68.70;;;;;;5021229;28;1281;-69
2022/09/28 09:09:29;;;;;;;;;;;21.50;68.80;;;;;;5000161;28;1443;-69
2022/09/28 09:12:03;;;;;;;;;;;21.50;68.80;;;;;;5020894;28;881;-68
2022/09/28 09:14:47;;;;;;;;;;;21.50;68.80;;;;;;5018447;28;879;-69
2022/09/28 09:17:13;;;;;;;;;;;21.50;68.80;;;;;;5020481;28;1336;-69
2022/09/28 09:19:41;;;;;;;;;;;21.40;68.80;;;;;;5018827;28;804;-69
2022/09/28 09:22:11;;;;;;;;;;;21.40;68.90;;;;;;5019922;28;900;-69
2022/09/28 09:24:39;;;;;;;;;;;21.40;68.90;;;;;;5019807;28;1907;-69
2022/09/28 09:27:26;;;;;;;;;;;21.40;68.90;;;;;;5022729;28;1263;-69
2022/09/28 09:29:54;;;;;;;;;;;21.40;68.90;;;;;;5024364;28;881;-69
2022/09/28 09:32:23;;;;;;;;;;;21.40;69.00;;;;;;5028230;28;1618;-69
2022/09/28 09:35:07;;;;;;;;;;;21.40;69.00;;;;;;5020353;28;826;-70
2022/09/28 09:37:51;;;;;;;;;;;21.40;69.00;;;;;;5021022;28;1180;-69
2022/09/28 09:40:29;;;;;;;;;;;21.40;69.00;;;;;;5019835;28;832;-69
2022/09/28 09:43:05;;;;;;;;;;;21.40;69.00;;;;;;5021869;28;832;-69
2022/09/28 09:45:43;;;;;;;;;;;21.40;69.10;;;;;;5018475;28;1907;-70
2022/09/28 09:48:17;;;;;;;;;;;21.40;69.10;;;;;;5020768;28;1002;-69
2022/09/28 09:50:44;;;;;;;;;;;21.30;69.00;;;;;;5019945;28;2045;-69
2022/09/28 09:53:18;;;;;;;;;;;21.30;69.00;;;;;;5025854;28;1899;-71
2022/09/28 09:55:44;;;;;;;;;;;21.30;69.80;;;;;;5021988;28;1299;-68
2022/09/28 09:58:13;;;;;;;;;;;21.30;69.00;;;;;;5021650;28;1449;-71
2022/09/28 10:00:42;;;;;;;;;;;21.30;69.00;;;;;;5024773;28;1427;-71
2022/09/28 10:03:12;;;;;;;;;;;21.30;69.10;;;;;;5022709;28;1430;-67
2022/09/28 10:05:37;;;;;;;;;;;21.40;69.10;;;;;;5022524;28;1914;-68
2022/09/28 10:08:07;;;;;;;;;;;21.30;68.90;;;;;;5023357;28;1516;-69
2022/09/28 10:10:37;;;;;;;;;;;21.40;69.00;;;;;;5025440;28;1515;-68
2022/09/28 10:13:02;;;;;;;;;;;21.40;69.00;;;;;;5024157;28;1312;-68
2022/09/28 10:15:29;;;;;;;;;;;21.40;68.90;;;;;;5023546;28;1499;-68
2022/09/28 10:17:55;;;;;;;;;;;21.40;68.90;;;;;;5027309;28;1343;-68
2022/09/28 10:20:21;;;;;;;;;;;21.40;68.90;;;;;;5026358;28;1383;-69
2022/09/28 10:22:48;;;;;;;;;;;21.40;68.80;;;;;;5021625;28;1254;-69
2022/09/28 10:25:13;;;;;;;;;;;21.40;68.80;;;;;;5015633;28;1902;-66
2022/09/28 10:27:40;;;;;;;;;;;21.40;68.80;;;;;;5021221;28;1308;-67
2022/09/28 10:30:07;;;;;;;;;;;21.40;68.80;;;;;;5021851;28;1460;-68
2022/09/28 10:32:36;;;;;;;;;;;21.40;68.80;;;;;;5019082;28;1310;-68
2022/09/28 10:35:10;;;;;;;;;;;21.40;68.80;;;;;;5019374;28;1249;-68
2022/09/28 10:37:45;;;;;;;;;;;21.40;68.80;;;;;;5024015;28;1247;-69
2022/09/28 10:40:29;;;;;;;;;;;21.40;68.80;;;;;;5021066;28;776;-69
2022/09/28 10:43:01;;;;;;;;;;;21.40;68.90;;;;;;5019282;28;900;-69
2022/09/28 10:45:26;;;;;;;;;;;21.30;68.80;;;;;;5017582;28;1975;-69
2022/09/28 10:47:52;;;;;;;;;;;21.30;68.80;;;;;;5023597;28;867;-70
2022/09/28 10:50:22;;;;;;;;;;;21.30;68.80;;;;;;5020530;28;903;-70
2022/09/28 10:52:48;;;;;;;;;;;21.30;68.80;;;;;;5022384;28;868;-68
2022/09/28 10:55:19;;;;;;;;;;;21.30;68.90;;;;;;5018719;28;1287;-69
2022/09/28 10:57:45;;;;;;;;;;;21.30;68.90;;;;;;5020922;28;971;-68
2022/09/28 11:00:27;;;;;;;;;;;21.30;69.00;;;;;;5019332;28;1027;-69
2022/09/28 11:02:53;;;;;;;;;;;21.30;68.90;;;;;;5021368;28;1324;-70
2022/09/28 11:05:19;;;;;;;;;;;21.30;69.00;;;;;;5020467;28;1973;-70
2022/09/28 11:07:45;;;;;;;;;;;21.30;69.00;;;;;;5020431;28;1364;-70
2022/09/28 11:10:17;;;;;;;;;;;21.30;69.00;;;;;;5020148;28;1530;-69
2022/09/28 11:12:44;;;;;;;;;;;21.30;69.00;;;;;;5017222;28;1353;-70
2022/09/28 11:15:10;;;;;;;;;;;21.20;69.00;;;;;;5022949;28;1366;-71
2022/09/28 11:17:40;;;;;;;;;;;21.30;69.10;;;;;;5021405;28;1445;-69
2022/09/28 11:20:22;;;;;;;;;;;21.20;69.10;;;;;;5021061;28;1357;-71
2022/09/28 11:22:47;;;;;;;;;;;21.30;69.10;;;;;;5024874;28;1238;-68
2022/09/28 11:25:16;;;;;;;;;;;21.20;69.10;;;;;;5023215;28;1898;-69
2022/09/28 11:27:50;;;;;;;;;;;21.20;69.10;;;;;;5018620;28;932;-69
2022/09/28 11:30:22;;;;;;;;;;;21.20;69.20;;;;;;5019010;28;958;-70
2022/09/28 11:32:47;;;;;;;;;;;21.20;69.20;;;;;;5018785;28;974;-70
2022/09/28 11:35:18;;;;;;;;;;;21.20;69.20;;;;;;5024791;28;1279;-68
2022/09/28 11:37:46;;;;;;;;;;;21.20;69.30;;;;;;5022129;28;971;-69
2022/09/28 11:40:15;;;;;;;;;;;21.20;69.30;;;;;;5018040;28;978;-71
2022/09/28 11:42:50;;;;;;;;;;;21.20;69.30;;;;;;5021758;28;967;-70
2022/09/28 11:45:31;;;;;;;;;;;21.20;69.40;;;;;;5021583;28;1909;-69
2022/09/28 11:47:58;;;;;;;;;;;21.10;69.30;;;;;;5017649;28;925;-69
2022/09/28 11:50:27;;;;;;;;;;;21.10;69.30;;;;;;5018085;28;973;-69
2022/09/28 11:52:58;;;;;;;;;;;21.10;69.30;;;;;;5017983;28;1200;-68
2022/09/28 11:55:26;;;;;;;;;;;21.10;69.30;;;;;;5019491;28;1478;-68
2022/09/28 11:57:53;;;;;;;;;;;21.20;69.40;;;;;;5020997;28;2184;-69
2022/09/28 12:00:19;;;;;;;;;;;21.10;69.40;;;;;;5022166;28;1963;-69
2022/09/28 12:02:47;;;;;;;;;;;21.10;69.40;;;;;;5026427;28;1489;-70
2022/09/28 12:05:17;;;;;;;;;;;21.10;69.40;;;;;;5018975;28;1902;-68
2022/09/28 12:07:43;;;;;;;;;;;21.10;69.50;;;;;;5021580;28;1253;-69
2022/09/28 12:10:14;;;;;;;;;;;21.10;69.50;;;;;;5020256;28;1367;-71
2022/09/28 12:12:41;;;;;;;;;;;21.10;70.30;;;;;;5025535;28;868;-69
2022/09/28 12:15:19;;;;;;;;;;;21.10;69.60;;;;;;5021473;28;1312;-69
2022/09/28 12:17:48;;;;;;;;;;;21.10;69.60;;;;;;5020070;28;1171;-69
2022/09/28 12:20:19;;;;;;;;;;;21.10;69.60;;;;;;5023985;28;977;-70
2022/09/28 12:22:45;;;;;;;;;;;21.00;69.50;;;;;;5027466;28;1915;-68
2022/09/28 12:25:12;;;;;;;;;;;21.10;69.70;;;;;;5020611;28;1899;-69
2022/09/28 12:27:40;;;;;;;;;;;21.00;69.60;;;;;;5028194;28;1248;-68
2022/09/28 12:30:13;;;;;;;;;;;21.00;69.70;;;;;;5024291;28;1417;-69
2022/09/28 12:32:42;;;;;;;;;;;21.00;69.70;;;;;;5021578;28;1601;-69
2022/09/28 12:35:11;;;;;;;;;;;21.00;69.70;;;;;;5017084;28;2025;-68
2022/09/28 12:37:57;;;;;;;;;;;21.00;69.70;;;;;;5021597;28;1454;-69
2022/09/28 12:40:27;;;;;;;;;;;21.00;69.70;;;;;;5023817;28;1366;-70
2022/09/28 12:43:16;;;;;;;;;;;21.00;69.80;;;;;;5018255;28;832;-68
2022/09/28 12:45:57;;;;;;;;;;;21.00;69.80;;;;;;5006339;28;1898;-68
2022/09/28 12:48:22;;;;;;;;;;;21.00;69.80;;;;;;5020248;28;1054;-70
2022/09/28 12:50:58;;;;;;;;;;;21.00;69.80;;;;;;5021218;28;782;-69
2022/09/28 12:53:24;;;;;;;;;;;21.00;69.80;;;;;;5023208;28;942;-68
2022/09/28 12:56:00;;;;;;;;;;;21.00;69.90;;;;;;5021659;28;1193;-69
2022/09/28 12:58:59;;;;;;;;;;;21.00;70.00;;;;;;5020222;28;1569;-68
2022/09/28 13:01:24;;;;;;;;;;;20.90;69.80;;;;;;5015062;28;1841;-69
2022/09/28 13:04:05;;;;;;;;;;;20.90;69.90;;;;;;5019763;28;1970;-69
2022/09/28 13:06:33;;;;;;;;;;;21.00;70.00;;;;;;5019721;28;1531;-69
2022/09/28 13:09:01;;;;;;;;;;;20.90;69.90;;;;;;5022248;28;1406;-68
2022/09/28 13:11:30;;;;;;;;;;;21.00;70.00;;;;;;5021175;28;943;-68
2022/09/28 13:14:01;;;;;;;;;;;20.90;70.00;;;;;;5021614;28;868;-71
2022/09/28 13:16:30;;;;;;;;;;;20.90;70.00;;;;;;5020267;28;1375;-69
2022/09/28 13:19:07;;;;;;;;;;;20.90;70.00;;;;;;5021222;28;1006;-70
2022/09/28 13:21:35;;;;;;;;;;;20.90;70.00;;;;;;5021886;28;978;-69
2022/09/28 13:24:04;;;;;;;;;;;20.90;70.00;;;;;;5019952;28;1890;-70
2022/09/28 13:26:36;;;;;;;;;;;20.90;70.10;;;;;;5019523;28;1244;-71
2022/09/28 13:29:03;;;;;;;;;;;20.90;70.00;;;;;;5018865;28;1284;-70
2022/09/28 13:31:30;;;;;;;;;;;20.90;70.10;;;;;;5023689;28;966;-69
2022/09/28 13:33:59;;;;;;;;;;;20.90;70.10;;;;;;5021052;28;887;-69
2022/09/28 13:36:25;;;;;;;;;;;20.90;70.10;;;;;;5022065;28;1363;-70
2022/09/28 13:38:51;;;;;;;;;;;20.90;70.10;;;;;;5021632;28;2083;-69
2022/09/28 13:41:17;;;;;;;;;;;20.90;70.20;;;;;;5021916;28;1282;-69
2022/09/28 13:43:47;;;;;;;;;;;20.90;70.10;;;;;;5023275;28;1914;-68
2022/09/28 13:46:19;;;;;;;;;;;20.90;70.20;;;;;;5021976;28;1341;-67
2022/09/28 13:49:14;;;;;;;;;;;20.90;70.20;;;;;;5017379;28;911;-68
2022/09/28 13:51:42;;;;;;;;;;;20.90;70.20;;;;;;4975881;28;1211;-70
2022/09/28 13:54:17;;;;;;;;;;;20.90;70.20;;;;;;5019024;28;907;-68
2022/09/28 13:56:52;;;;;;;;;;;20.80;70.20;;;;;;5020348;28;1246;-68
2022/09/28 13:59:23;;;;;;;;;;;20.90;70.20;;;;;;5021848;28;867;-68
2022/09/28 14:01:50;;;;;;;;;;;20.90;70.30;;;;;;5015357;28;2087;-69
2022/09/28 14:04:17;;;;;;;;;;;20.80;70.20;;;;;;5017282;28;1983;-69
2022/09/28 14:06:44;;;;;;;;;;;20.80;70.20;;;;;;5018947;28;1378;-69
2022/09/28 14:09:14;;;;;;;;;;;20.80;70.20;;;;;;5018732;28;1412;-69
2022/09/28 14:11:52;;;;;;;;;;;20.90;70.30;;;;;;5018074;28;978;-69
2022/09/28 14:14:25;;;;;;;;;;;20.90;70.30;;;;;;5014507;28;1838;-69
2022/09/28 14:16:51;;;;;;;;;;;20.90;70.20;;;;;;5020497;28;1822;-70
2022/09/28 14:19:17;;;;;;;;;;;20.90;70.20;;;;;;5021598;28;1254;-71
2022/09/28 14:21:54;;;;;;;;;;;20.90;70.10;;;;;;5015428;28;919;-69
2022/09/28 14:24:26;;;;;;;;;;;20.90;70.10;;;;;;5018616;28;1898;-70
2022/09/28 14:26:58;;;;;;;;;;;20.90;70.10;;;;;;5018748;28;1301;-70
2022/09/28 14:29:27;;;;;;;;;;;20.90;70.20;;;;;;5017753;28;859;-69
2022/09/28 14:31:54;;;;;;;;;;;20.90;70.10;;;;;;5020276;28;1421;-69
2022/09/28 14:34:30;;;;;;;;;;;20.90;70.10;;;;;;5019914;28;1524;-69
2022/09/28 14:42:26;;;;;;;;;;;20.90;70.10;;;;;;5018375;28;1257;-69
2022/09/28 14:45:01;;;;;;;;;;;20.90;70.00;;;;;;5019170;28;1957;-69
2022/09/28 14:47:42;;;;;;;;;;;20.90;70.00;;;;;;5019625;28;1423;-69
2022/09/28 14:50:22;;;;;;;;;;;20.90;70.00;;;;;;5015883;28;884;-69
2022/09/28 14:52:48;;;;;;;;;;;20.90;69.90;;;;;;5018305;28;896;-69
2022/09/28 14:55:14;;;;;;;;;;;20.90;70.00;;;;;;5017196;28;1272;-69
2022/09/28 14:57:39;;;;;;;;;;;20.90;70.00;;;;;;5018707;28;1566;-70